Terminal Aerodrome Forecast
Issued by NWS

Home | Current Version | Previous Version | Text Only | Print | Product List | Glossary On
Versions: 1 2 3 4 5 6 7 8 9 10 11 12 13 14
000
FTUS44 KEPZ 282340
TAFDMN
TAF
KDMN 282340Z 2900/2924 29015G25KT P6SM VCSH SCT080 BKN100
     FM290600 27020G30KT P6SM BKN060 BKN120
      TEMPO 2908/2912 27030G40KT 4SM BLDU
     FM291500 30018G28KT P6SM BKN050 BKN120
     FM292000 34015G25KT P6SM SCT050 SCT120=

USA.gov is the U.S. government's official web portal to all federal, state and local government web resources and services.